WDI weather

Wondai Airport
Queensland, Australia

Public forecast

Using degrees Celsius for public forecast. Weather courtesy of forecast.io.

METAR (pilot weather report)

Closest report is Kingaroy Airport, 17.9 nm (33.1 km) S. Retrieved 2019/04/19 14:30 UTC (0 seconds ago):

YKRY 191430Z AUTO 12006KT 9999 // BKN006 BKN018 OVC029 18/17 Q1022

TAF (pilot weather forecast)

Forecast is more than 12 hours old.

Closest forecast is RAAF Base Amberley, 93.4 nm (173.0 km) SSE. Retrieved 2019/04/18 18:00 UTC (20 hours ago):

TAF YAMB 181653Z 1818/1912 16005KT 9999 FEW025 SCT035 FM182300 14012KT 9999 -SHRA SCT035 BKN050 INTER 1900/1912 VRB15G25KT 5000 -SHRA BKN020 BKN035